Time;durP1;ratioP1;P1;durP2;ratioP2;P2;SDS_P1;SDS_P2;PMS_P1;PMS_P2;Temp;Humidity;BMP_temperature;BMP_pressure;BME280_temperature;BME280_humidity;BME280_pressure;Samples;Min_cycle;Max_cycle;Signal;HPM_P1;HPM_P2
2022/10/02 00:00:01;;;;;;;6.57;1.90;;;;;;;-140.72;100.00;52849.47;5005595;28;20022;-69
2022/10/02 00:02:29;;;;;;;4.40;1.40;;;;;;;-140.72;100.00;52808.88;5006338;28;20029;-69
2022/10/02 00:04:57;;;;;;;3.17;1.40;;;;;;;-140.72;100.00;52837.28;5001403;28;20066;-68
2022/10/02 00:07:30;;;;;;;5.32;1.58;;;;;;;-140.72;100.00;52837.28;5003917;28;20030;-69
2022/10/02 00:10:11;;;;;;;5.38;1.75;;;;;;;-140.72;100.00;52806.84;5007971;28;20075;-68
2022/10/02 00:12:37;;;;;;;4.75;1.25;;;;;;;-140.72;100.00;52782.50;5003053;28;20041;-69
2022/10/02 00:15:13;;;;;;;4.93;1.38;;;;;;;-140.72;100.00;52812.94;5003216;28;20040;-68
2022/10/02 00:17:43;;;;;;;4.00;1.92;;;;;;;-140.72;100.00;52796.72;4997387;28;20072;-68
2022/10/02 00:20:13;;;;;;;;;;;;;;;-140.72;100.00;52827.16;5005918;28;20465;-68
2022/10/02 00:22:45;;;;;;;;;;;;;;;-140.72;100.00;52800.75;5001630;28;19996;-68
2022/10/02 00:25:19;;;;;;;3.42;1.15;;;;;;;-140.72;100.00;52817.00;5004960;28;19953;-69
2022/10/02 00:28:15;;;;;;;4.85;1.27;;;;;;;-140.72;100.00;52790.63;5003894;28;20030;-68
2022/10/02 00:31:19;;;;;;;8.05;1.70;;;;;;;-140.72;100.00;52780.47;5001121;28;20399;-68
2022/10/02 00:34:20;;;;;;;3.95;1.40;;;;;;;-140.72;100.00;52829.19;5001168;28;20394;-69
2022/10/02 00:36:57;;;;;;;3.28;1.30;;;;;;;-140.72;100.00;52768.28;5000991;28;20030;-69
2022/10/02 00:39:53;;;;;;;5.47;1.33;;;;;;;-140.72;100.00;52817.00;5000182;28;20076;-69
2022/10/02 00:42:34;;;;;;;7.80;1.77;;;;;;;-140.72;100.00;52760.19;5000623;28;20022;-68
2022/10/02 00:45:34;;;;;;;5.97;1.55;;;;;;;-140.72;100.00;52776.41;4998582;28;20096;-69
2022/10/02 00:48:05;;;;;;;3.67;1.48;;;;;;;-140.72;100.00;52808.88;5011381;28;20157;-69
2022/10/02 00:50:40;;;;;;;6.50;2.08;;;;;;;-140.72;100.00;52806.84;5006374;28;20441;-69
2022/10/02 00:53:09;;;;;;;11.10;2.28;;;;;;;-140.72;100.00;52792.66;5004428;28;20049;-69
2022/10/02 00:56:12;;;;;;;5.97;1.30;;;;;;;-140.72;100.00;52778.44;5002779;28;20024;-69
2022/10/02 00:59:02;;;;;;;3.97;0.95;;;;;;;-140.72;100.00;52768.28;5004661;28;20032;-69
2022/10/02 01:02:09;;;;;;;2.05;1.20;;;;;;;-140.72;100.00;52780.47;5006450;28;20026;-68
2022/10/02 01:04:36;;;;;;;4.15;1.85;;;;;;;-140.72;100.00;52784.53;4961680;28;20041;-69
2022/10/02 01:07:05;;;;;;;4.55;1.13;;;;;;;-140.72;100.00;52792.66;5012966;28;20026;-69
2022/10/02 01:09:32;;;;;;;5.63;1.10;;;;;;;-140.72;100.00;52790.63;5008752;28;20358;-69
2022/10/02 01:11:59;;;;;;;9.32;2.22;;;;;;;-140.72;100.00;52778.44;5000866;28;20029;-69
2022/10/02 01:14:34;;;;;;;5.78;1.73;;;;;;;-140.72;100.00;52752.06;5006721;28;20343;-69
2022/10/02 01:17:01;;;;;;;4.72;1.42;;;;;;;-140.72;100.00;52808.88;5005364;28;20101;-69
2022/10/02 01:19:34;;;;;;;6.93;1.85;;;;;;;-140.72;100.00;52750.03;5005618;28;20030;-69
2022/10/02 01:22:35;;;;;;;5.70;1.35;;;;;;;-140.72;100.00;52776.41;5005542;28;20474;-69
2022/10/02 01:25:06;;;;;;;4.90;1.77;;;;;;;-140.72;100.00;52756.13;5002769;28;20029;-69
2022/10/02 01:27:33;;;;;;;6.45;1.83;;;;;;;-140.72;100.00;52794.69;5003131;28;20029;-69
2022/10/02 01:30:03;;;;;;;5.60;1.67;;;;;;;-140.72;100.00;52800.75;5003883;28;20026;-68
2022/10/02 01:32:28;;;;;;;9.68;1.33;;;;;;;-140.72;100.00;52780.47;5000851;28;20389;-69
2022/10/02 01:34:55;;;;;;;2.17;1.48;;;;;;;-140.72;100.00;52772.34;5004310;28;20049;-69
2022/10/02 01:37:25;;;;;;;3.83;1.08;;;;;;;-140.72;100.00;52812.94;5007917;28;20454;-69
2022/10/02 01:39:51;;;;;;;8.05;1.58;;;;;;;-140.72;100.00;52804.81;5000505;28;20018;-68
2022/10/02 01:42:18;;;;;;;5.50;1.65;;;;;;;-140.72;100.00;52800.75;5002253;28;20026;-69
2022/10/02 01:44:44;;;;;;;6.25;1.20;;;;;;;-140.72;100.00;52821.06;5010778;28;20041;-69
2022/10/02 01:47:18;;;;;;;4.25;1.25;;;;;;;-140.72;100.00;52819.03;5001263;28;20026;-69
2022/10/02 01:49:59;;;;;;;10.10;1.98;;;;;;;-140.72;100.00;52831.19;5001048;28;20030;-69
2022/10/02 01:52:44;;;;;;;5.18;1.60;;;;;;;-140.72;100.00;52800.75;5000654;28;20026;-68
2022/10/02 01:55:15;;;;;;;2.95;1.63;;;;;;;-140.72;100.00;52788.59;5008136;28;20079;-69
2022/10/02 01:57:47;;;;;;;3.63;1.05;;;;;;;-140.72;100.00;52792.66;5001908;28;20022;-68
2022/10/02 02:00:22;;;;;;;4.63;1.08;;;;;;;-140.72;100.00;52823.09;5002584;28;20041;-69
2022/10/02 02:03:15;;;;;;;3.13;1.00;;;;;;;-140.72;100.00;52810.91;5002920;28;20025;-69
2022/10/02 02:05:55;;;;;;;3.17;1.30;;;;;;;-140.72;100.00;52778.44;5003204;28;20021;-68
2022/10/02 02:08:35;;;;;;;7.10;1.77;;;;;;;-140.72;100.00;52774.38;5005308;28;20033;-68
2022/10/02 02:11:11;;;;;;;3.65;1.55;;;;;;;-140.72;100.00;52825.13;5005570;28;20451;-68
2022/10/02 02:14:03;;;;;;;1.65;1.00;;;;;;;-140.72;100.00;52802.78;5004551;28;20463;-68
2022/10/02 02:16:48;;;;;;;8.48;1.80;;;;;;;-140.72;100.00;52782.50;5006798;28;20026;-68
2022/10/02 02:19:24;;;;;;;10.48;2.72;;;;;;;-140.72;100.00;52778.44;5009038;28;20047;-68
2022/10/02 02:21:57;;;;;;;8.63;1.55;;;;;;;-140.72;100.00;52804.81;5000642;28;20469;-68
2022/10/02 02:24:33;;;;;;;3.33;1.25;;;;;;;-140.72;100.00;52784.53;4999212;28;20125;-68
2022/10/02 02:27:01;;;;;;;6.15;1.48;;;;;;;-140.72;100.00;52796.72;5007407;28;20018;-69
2022/10/02 02:29:31;;;;;;;8.75;1.65;;;;;;;-140.72;100.00;52790.63;5002196;28;20109;-69
2022/10/02 02:31:58;;;;;;;3.70;1.60;;;;;;;-140.72;100.00;52802.78;5000865;28;20025;-68
2022/10/02 02:34:32;;;;;;;7.53;1.50;;;;;;;-140.72;100.00;52837.28;4998584;28;20077;-69
2022/10/02 02:37:03;;;;;;;3.65;1.00;;;;;;;-140.72;100.00;52800.75;5002173;28;20042;-69
2022/10/02 02:39:41;;;;;;;3.05;1.00;;;;;;;-140.72;100.00;52778.44;5003534;28;20076;-70
2022/10/02 02:42:11;;;;;;;3.60;1.20;;;;;;;-140.72;100.00;52806.84;5006650;28;20024;-69
2022/10/02 02:44:44;;;;;;;4.45;1.00;;;;;;;-140.72;100.00;52776.41;5002157;28;20129;-69
2022/10/02 02:47:19;;;;;;;8.88;1.88;;;;;;;-140.72;100.00;52784.53;5006691;28;20083;-69
2022/10/02 02:49:54;;;;;;;13.82;1.85;;;;;;;-140.72;100.00;52806.84;4995441;28;20364;-68
2022/10/02 02:52:34;;;;;;;3.63;0.70;;;;;;;-140.72;100.00;52784.53;4998773;28;20014;-69
2022/10/02 02:55:09;;;;;;;10.38;1.63;;;;;;;-140.72;100.00;52819.03;5006405;28;20306;-69
2022/10/02 02:57:48;;;;;;;8.48;2.13;;;;;;;-140.72;100.00;52819.03;5005775;28;20591;-69
2022/10/02 03:00:15;;;;;;;4.35;1.42;;;;;;;-140.72;100.00;52796.72;5002877;28;20120;-69
2022/10/02 03:02:41;;;;;;;4.60;1.80;;;;;;;-140.72;100.00;52802.78;5002788;28;20022;-68
2022/10/02 03:05:16;;;;;;;5.68;1.55;;;;;;;-140.72;100.00;52784.53;5005335;28;20025;-69
2022/10/02 03:07:54;;;;;;;6.65;1.67;;;;;;;-140.72;100.00;52802.78;4999945;28;20112;-68
2022/10/02 03:11:00;;;;;;;8.90;1.35;;;;;;;-140.72;100.00;52814.97;5001667;28;20014;-69
2022/10/02 03:13:31;;;;;;;4.95;1.38;;;;;;;-140.72;100.00;52810.91;4962344;28;20442;-69
2022/10/02 03:16:22;;;;;;;5.90;0.95;;;;;;;-140.72;100.00;52776.41;5000640;28;20034;-70
2022/10/02 03:19:14;;;;;;;3.35;1.13;;;;;;;-140.72;100.00;52808.88;4993808;28;20459;-70
2022/10/02 03:22:13;;;;;;;7.18;1.50;;;;;;;-140.72;100.00;52806.84;4984554;28;20037;-69
2022/10/02 03:24:49;;;;;;;5.10;0.82;;;;;;;-140.72;100.00;52788.59;5005750;28;20045;-70
2022/10/02 03:27:25;;;;;;;5.65;1.55;;;;;;;-140.72;100.00;52782.50;4999745;28;20366;-69
2022/10/02 03:30:02;;;;;;;4.82;1.67;;;;;;;-140.72;100.00;52784.53;5003724;28;20447;-68
2022/10/02 03:32:29;;;;;;;4.97;1.08;;;;;;;-140.72;100.00;52821.06;4999118;28;20029;-68
2022/10/02 03:34:56;;;;;;;2.97;1.20;;;;;;;-140.72;100.00;52825.13;5006545;28;20139;-68
2022/10/02 03:37:23;;;;;;;3.78;1.23;;;;;;;-140.72;100.00;52825.13;5007565;28;20370;-69
2022/10/02 03:39:50;;;;;;;7.80;1.80;;;;;;;-140.72;100.00;52800.75;5001492;28;20018;-69
2022/10/02 03:42:20;;;;;;;6.85;1.85;;;;;;;-140.72;100.00;52798.72;4998100;28;20092;-69
2022/10/02 03:44:45;;;;;;;9.20;1.48;;;;;;;-140.72;100.00;52800.75;5004441;28;20343;-69
2022/10/02 03:47:11;;;;;;;5.60;1.25;;;;;;;-140.72;100.00;52784.53;5010300;28;20091;-69
2022/10/02 03:49:36;;;;;;;3.42;0.95;;;;;;;-140.72;100.00;52794.69;5002548;28;20057;-69
2022/10/02 03:52:01;;;;;;;6.95;1.30;;;;;;;-140.72;100.00;52837.28;5002678;28;20398;-69
2022/10/02 03:54:31;;;;;;;2.58;1.05;;;;;;;-140.72;100.00;52817.00;5005811;28;20021;-69
2022/10/02 03:57:03;;;;;;;4.25;1.65;;;;;;;-140.72;100.00;52814.97;4996160;28;20038;-69
2022/10/02 04:00:02;;;;;;;6.50;1.73;;;;;;;-140.72;100.00;52845.41;5001086;28;20053;-69
2022/10/02 04:02:46;;;;;;;1.90;0.95;;;;;;;-140.72;100.00;52825.13;4942795;28;20052;-69
2022/10/02 04:05:40;;;;;;;4.80;1.30;;;;;;;-140.72;100.00;52835.25;5005265;28;20033;-69
2022/10/02 04:08:26;;;;;;;3.60;1.15;;;;;;;-140.72;100.00;52851.50;4979250;28;20109;-69
2022/10/02 04:11:07;;;;;;;1.90;0.98;;;;;;;-140.72;100.00;52833.22;5006460;28;20105;-68
2022/10/02 04:13:48;;;;;;;4.28;1.00;;;;;;;-140.72;100.00;52845.41;5001914;28;20061;-68
2022/10/02 04:16:23;;;;;;;2.85;1.33;;;;;;;-140.72;100.00;52819.03;5007328;28;20040;-69
2022/10/02 04:19:02;;;;;;;3.20;0.77;;;;;;;-140.72;100.00;52845.41;5005688;28;20021;-70
2022/10/02 04:21:42;;;;;;;5.32;1.15;;;;;;;-140.72;100.00;52823.09;5000661;28;20108;-69
2022/10/02 04:24:20;;;;;;;2.95;0.88;;;;;;;-140.72;100.00;52849.47;5006636;28;20052;-69
2022/10/02 04:26:58;;;;;;;3.67;0.90;;;;;;;-140.72;100.00;52853.53;5000774;28;20019;-69
2022/10/02 04:29:30;;;;;;;3.55;0.68;;;;;;;-140.72;100.00;52855.56;5006192;28;20385;-69
2022/10/02 04:32:16;;;;;;;2.47;0.73;;;;;;;-140.72;100.00;52835.25;5009652;28;20033;-69
2022/10/02 04:34:42;;;;;;;3.75;1.20;;;;;;;-140.72;100.00;52857.59;5002269;28;20022;-69
2022/10/02 04:37:13;;;;;;;4.63;1.08;;;;;;;-140.72;100.00;52829.19;5002489;28;20026;-69
2022/10/02 04:39:44;;;;;;;2.75;0.77;;;;;;;-140.72;100.00;52794.69;5001057;28;20360;-69
2022/10/02 04:42:32;;;;;;;6.57;1.85;;;;;;;-140.72;100.00;52827.16;4999809;28;20109;-69
2022/10/02 04:45:36;;;;;;;5.22;1.20;;;;;;;-140.72;100.00;52859.63;4996334;28;20442;-70
2022/10/02 04:48:16;;;;;;;3.35;0.90;;;;;;;-140.72;100.00;52867.72;4997865;28;20180;-69
2022/10/02 04:51:01;;;;;;;2.13;0.85;;;;;;;-140.72;100.00;52833.22;5002696;28;20018;-69
2022/10/02 04:53:29;;;;;;;5.50;2.15;;;;;;;-140.72;100.00;52821.06;5001506;28;20378;-70
2022/10/02 04:56:03;;;;;;;7.45;1.58;;;;;;;-140.72;100.00;52841.34;5000806;28;20022;-69
2022/10/02 04:59:09;;;;;;;7.18;2.00;;;;;;;-140.72;100.00;52829.19;4998030;28;20038;-69
2022/10/02 05:01:53;;;;;;;3.05;0.68;;;;;;;-140.72;100.00;52804.81;5002531;28;20026;-69
2022/10/02 05:04:33;;;;;;;1.75;0.98;;;;;;;-140.72;100.00;52855.56;4977848;28;20022;-69
2022/10/02 05:07:07;;;;;;;3.58;1.10;;;;;;;-140.72;100.00;52831.19;4997410;28;20106;-69
2022/10/02 05:09:39;;;;;;;3.58;1.15;;;;;;;-140.72;100.00;52776.41;4998972;28;20029;-69
2022/10/02 05:12:25;;;;;;;5.07;1.50;;;;;;;-140.72;100.00;52845.41;4996103;28;20379;-68
2022/10/02 05:15:14;;;;;;;3.63;0.82;;;;;;;-140.72;100.00;52821.06;4997620;28;20034;-69
2022/10/02 05:18:10;;;;;;;1.20;0.70;;;;;;;-140.72;100.00;52829.19;5001937;28;20033;-69
2022/10/02 05:21:26;;;;;;;4.78;1.38;;;;;;;-140.72;100.00;52845.41;5003292;28;20061;-68
2022/10/02 05:24:05;;;;;;;5.00;1.38;;;;;;;-140.72;100.00;52841.34;4937984;28;20117;-68
2022/10/02 05:27:04;;;;;;;6.32;1.65;;;;;;;-140.72;100.00;52831.19;4996253;28;20457;-69
2022/10/02 05:29:36;;;;;;;6.43;1.27;;;;;;;-140.72;100.00;52800.75;4942893;28;20030;-69
2022/10/02 05:32:08;;;;;;;5.90;1.67;;;;;;;-140.72;100.00;52814.97;4997219;28;20113;-69
2022/10/02 05:34:49;;;;;;;4.45;1.25;;;;;;;-140.72;100.00;52796.72;5006064;28;20158;-69
2022/10/02 05:38:09;;;;;;;1.58;0.93;;;;;;;-140.72;100.00;52829.19;4996478;28;20030;-69
2022/10/02 05:40:55;;;;;;;3.33;0.98;;;;;;;-140.72;100.00;52873.81;4932110;29;20031;-69
2022/10/02 05:43:34;;;;;;;2.17;0.93;;;;;;;-140.72;100.00;52829.19;4998835;28;20065;-69
2022/10/02 05:46:10;;;;;;;4.38;0.77;;;;;;;-140.72;100.00;52825.13;5005934;28;20053;-69
2022/10/02 05:48:53;;;;;;;1.75;0.68;;;;;;;-140.72;100.00;52831.19;5003678;28;20161;-70
2022/10/02 05:51:40;;;;;;;6.07;1.50;;;;;;;-140.72;100.00;52845.41;5002660;28;20349;-69
2022/10/02 05:54:33;;;;;;;2.67;1.23;;;;;;;-140.72;100.00;52857.59;5002322;28;20018;-69
2022/10/02 05:57:42;;;;;;;7.07;1.42;;;;;;;-140.72;100.00;52823.09;5002859;28;20025;-69
2022/10/02 06:00:19;;;;;;;7.50;1.00;;;;;;;-140.72;100.00;52819.03;5008160;28;20018;-69
2022/10/02 06:02:56;;;;;;;4.70;1.27;;;;;;;-140.72;100.00;52831.19;5003566;28;20133;-69
2022/10/02 06:05:54;;;;;;;2.35;1.23;;;;;;;-140.72;100.00;52806.84;5005742;28;20022;-69
2022/10/02 06:08:26;;;;;;;6.57;1.27;;;;;;;-140.72;100.00;52780.47;5010217;28;20017;-69
2022/10/02 06:10:58;;;;;;;5.07;1.75;;;;;;;-140.72;100.00;52829.19;5007512;28;20084;-69
2022/10/02 06:13:39;;;;;;;2.80;0.68;;;;;;;-140.72;100.00;52780.47;5005136;28;20022;-69
2022/10/02 06:16:13;;;;;;;5.22;1.30;;;;;;;-140.72;100.00;52833.22;5005806;28;20102;-70
2022/10/02 06:18:42;;;;;;;2.83;1.10;;;;;;;-140.72;100.00;52823.09;4991037;28;20057;-69
2022/10/02 06:21:18;;;;;;;3.95;1.33;;;;;;;-140.72;100.00;52845.41;5004403;28;20022;-70
2022/10/02 06:23:52;;;;;;;3.13;1.05;;;;;;;-140.72;100.00;52845.41;5004833;28;20021;-71
2022/10/02 06:26:27;;;;;;;4.60;1.63;;;;;;;-140.72;100.00;52796.72;5005690;28;20032;-68
2022/10/02 06:29:02;;;;;;;5.03;1.17;;;;;;;-140.72;100.00;52817.00;5007960;28;20096;-69
2022/10/02 06:31:39;;;;;;;3.60;1.13;;;;;;;-140.72;100.00;52817.00;5006197;28;20451;-68
2022/10/02 06:34:11;;;;;;;5.07;1.33;;;;;;;-140.72;100.00;52814.97;5002264;28;20025;-69
2022/10/02 06:37:05;;;;;;;3.85;1.30;;;;;;;-140.72;100.00;52798.72;5009843;28;20458;-70
2022/10/02 06:39:59;;;;;;;2.53;0.70;;;;;;;-140.72;100.00;52774.38;5010904;28;20024;-69
2022/10/02 06:42:59;;;;;;;3.10;1.08;;;;;;;-140.72;100.00;52837.28;5006972;28;20052;-69
2022/10/02 06:45:34;;;;;;;;;;;;;;;-140.72;100.00;52756.13;5003153;28;20084;-70
2022/10/02 06:48:13;;;;;;;5.53;1.30;;;;;;;-140.72;100.00;52808.88;4993494;28;19918;-70
2022/10/02 06:51:05;;;;;;;5.60;1.00;;;;;;;-140.72;100.00;52802.78;5001884;28;20021;-69
2022/10/02 06:54:18;;;;;;;7.63;1.33;;;;;;;-140.72;100.00;52821.06;4957449;28;20096;-69
2022/10/02 06:56:52;;;;;;;1.20;0.52;;;;;;;-140.72;100.00;52810.91;5001862;28;20045;-69
2022/10/02 06:59:50;;;;;;;2.85;1.05;;;;;;;-140.72;100.00;52800.75;4999956;28;20470;-70
2022/10/02 07:02:43;;;;;;;5.07;1.30;;;;;;;-140.72;100.00;52770.31;4988069;28;20027;-69
2022/10/02 07:05:39;;;;;;;5.15;0.70;;;;;;;-140.72;100.00;52756.13;5003902;28;20029;-70
2022/10/02 07:08:21;;;;;;;5.50;1.58;;;;;;;-140.72;100.00;52770.31;5007050;28;20014;-70
2022/10/02 07:11:20;;;;;;;7.07;2.00;;;;;;;-140.72;100.00;52750.03;5000606;28;20017;-70
2022/10/02 07:14:00;;;;;;;7.53;1.95;;;;;;;-140.72;100.00;52794.69;5008612;28;20017;-70
2022/10/02 07:16:39;;;;;;;4.45;0.77;;;;;;;-140.72;100.00;52792.66;4997310;28;20019;-68
2022/10/02 07:19:32;;;;;;;6.97;1.10;;;;;;;-140.72;100.00;52743.94;4999929;28;20025;-68
2022/10/02 07:22:35;;;;;;;3.05;0.95;;;;;;;-140.72;100.00;52806.84;5006245;28;20014;-69
2022/10/02 07:25:16;;;;;;;4.10;1.23;;;;;;;-140.72;100.00;52731.75;5005120;28;20122;-71
2022/10/02 07:28:03;;;;;;;9.57;1.23;;;;;;;-140.72;100.00;52756.13;4994440;28;20049;-69
2022/10/02 07:30:50;;;;;;;5.78;1.00;;;;;;;-140.72;100.00;52743.94;5000175;28;20033;-69
2022/10/02 07:33:37;;;;;;;2.65;0.85;;;;;;;-140.72;100.00;52792.66;5005327;28;20014;-68
2022/10/02 07:36:23;;;;;;;3.47;1.20;;;;;;;-140.72;100.00;52764.25;5004732;28;20053;-69
2022/10/02 07:38:58;;;;;;;1.98;0.82;;;;;;;-140.72;100.00;52808.88;5001801;28;20014;-69
2022/10/02 07:41:38;;;;;;;4.00;1.10;;;;;;;-140.72;100.00;52768.28;5003154;28;20021;-70
2022/10/02 07:44:21;;;;;;;4.90;0.80;;;;;;;-140.72;100.00;52729.75;4996736;28;20450;-69
2022/10/02 07:46:56;;;;;;;6.75;1.60;;;;;;;-140.72;100.00;52731.75;5001157;28;20112;-68
2022/10/02 07:49:31;;;;;;;2.15;1.10;;;;;;;-140.72;100.00;52743.94;5006091;28;20473;-69
2022/10/02 07:52:06;;;;;;;1.48;0.70;;;;;;;-140.72;100.00;52764.25;4999583;28;20117;-68
2022/10/02 07:54:51;;;;;;;3.22;0.95;;;;;;;-140.72;100.00;52723.66;5004004;28;20120;-68
2022/10/02 07:57:29;;;;;;;2.50;1.25;;;;;;;-140.72;100.00;52723.66;4997070;28;20029;-69
2022/10/02 08:00:01;;;;;;;4.88;0.98;;;;;;;-140.72;100.00;52743.94;5002539;28;20018;-69
2022/10/02 08:02:53;;;;;;;5.40;0.80;;;;;;;-140.72;100.00;52778.44;5001913;28;20034;-68
2022/10/02 08:05:25;;;;;;;3.00;0.82;;;;;;;-140.72;100.00;52735.81;5002685;28;20462;-69
2022/10/02 08:07:56;;;;;;;6.00;1.15;;;;;;;-140.72;100.00;52743.94;5007331;28;20034;-71
2022/10/02 08:10:27;;;;;;;7.55;1.63;;;;;;;-140.72;100.00;52748.00;5001170;28;20379;-69
2022/10/02 08:12:59;;;;;;;6.00;1.00;;;;;;;-140.72;100.00;52695.25;5003236;28;20030;-68
2022/10/02 08:15:27;;;;;;;5.15;1.20;;;;;;;-140.72;100.00;52723.66;5007626;28;20175;-70
2022/10/02 08:18:00;;;;;;;6.65;1.35;;;;;;;-140.72;100.00;52748.00;5003520;28;20053;-68
2022/10/02 08:20:37;;;;;;;3.53;1.13;;;;;;;-140.72;100.00;52719.59;5008469;28;20118;-69
2022/10/02 08:23:19;;;;;;;5.90;0.82;;;;;;;-140.72;100.00;52707.41;5007151;28;20080;-70
2022/10/02 08:25:49;;;;;;;7.82;1.23;;;;;;;-140.72;100.00;52711.47;5004847;28;20046;-69
2022/10/02 08:28:23;;;;;;;2.03;0.77;;;;;;;-140.72;100.00;52739.88;5007166;28;20033;-68
2022/10/02 08:30:48;;;;;;;3.03;0.80;;;;;;;-140.72;100.00;52741.91;5005425;28;20026;-70
2022/10/02 08:33:21;;;;;;;5.70;1.13;;;;;;;-140.72;100.00;52670.88;5005537;28;20470;-69
2022/10/02 08:36:09;;;;;;;9.70;1.58;;;;;;;-140.72;100.00;52715.53;5001955;28;20081;-69
2022/10/02 08:38:44;;;;;;;2.97;0.90;;;;;;;-140.72;100.00;52721.63;5004642;28;20097;-68
2022/10/02 08:41:18;;;;;;;8.65;1.70;;;;;;;-140.72;100.00;52666.84;4998356;28;20040;-68
2022/10/02 08:44:04;;;;;;;2.72;1.15;;;;;;;-140.72;100.00;52719.59;5009860;28;20068;-67
2022/10/02 08:47:13;;;;;;;4.40;1.05;;;;;;;-140.72;100.00;52670.88;5006294;28;20030;-67
2022/10/02 08:50:00;;;;;;;5.72;1.05;;;;;;;-140.72;100.00;52672.91;5009539;28;20088;-68
2022/10/02 08:52:59;;;;;;;7.20;1.27;;;;;;;-140.72;100.00;52701.31;5006976;28;20117;-68
2022/10/02 08:55:53;;;;;;;6.63;1.15;;;;;;;-140.72;100.00;52660.75;5004010;28;20442;-68
2022/10/02 08:58:56;;;;;;;4.88;1.23;;;;;;;-140.72;100.00;52656.69;5003460;28;20075;-67
2022/10/02 09:01:40;;;;;;;2.72;0.93;;;;;;;-140.72;100.00;52664.81;5005245;28;20104;-67
2022/10/02 09:04:18;;;;;;;6.47;0.95;;;;;;;-140.72;100.00;52668.84;4999961;28;20563;-68
2022/10/02 09:06:46;;;;;;;4.95;0.75;;;;;;;-140.72;100.00;52681.03;4998109;28;20100;-68
2022/10/02 09:09:46;;;;;;;13.32;1.42;;;;;;;-140.72;100.00;52656.69;5008708;28;20112;-68
2022/10/02 09:12:59;;;;;;;5.70;1.20;;;;;;;-140.72;100.00;52634.38;5000610;28;20034;-67
2022/10/02 09:15:30;;;;;;;3.63;0.70;;;;;;;-140.72;100.00;52711.47;4950136;28;20043;-67
2022/10/02 09:18:30;;;;;;;4.13;1.15;;;;;;;-140.72;100.00;52670.88;4944451;29;20027;-67
2022/10/02 09:21:18;;;;;;;8.40;1.38;;;;;;;-140.72;100.00;52705.38;4999768;28;20037;-68
2022/10/02 09:23:56;;;;;;;4.32;1.38;;;;;;;-140.72;100.00;52650.59;5005265;28;20521;-67
2022/10/02 09:26:42;;;;;;;3.45;1.30;;;;;;;-140.72;100.00;52685.09;5009073;28;20080;-67
2022/10/02 09:29:49;;;;;;;8.02;1.77;;;;;;;-140.72;100.00;52672.91;5008196;28;20026;-68
2022/10/02 09:32:47;;;;;;;5.05;1.25;;;;;;;-140.72;100.00;52650.59;5008563;28;20350;-68
2022/10/02 09:35:47;;;;;;;2.15;0.73;;;;;;;-140.72;100.00;52630.31;5004168;28;20511;-68
2022/10/02 09:38:28;;;;;;;2.88;0.77;;;;;;;-140.72;100.00;52642.47;5005445;28;20026;-67
2022/10/02 09:41:12;;;;;;;2.38;1.02;;;;;;;-140.72;100.00;52620.16;5004639;28;20109;-67
2022/10/02 09:44:02;;;;;;;8.68;1.52;;;;;;;-140.72;100.00;52589.72;5011453;28;20436;-67
2022/10/02 09:46:48;;;;;;;3.85;1.17;;;;;;;-140.72;100.00;52638.41;5005182;28;20101;-67
2022/10/02 09:49:32;;;;;;;1.52;0.65;;;;;;;-140.72;100.00;52630.31;5010810;28;20033;-67
2022/10/02 09:52:15;;;;;;;4.57;1.38;;;;;;;-140.72;100.00;52624.22;5007215;28;20367;-66
2022/10/02 09:55:16;;;;;;;4.72;0.95;;;;;;;-140.72;100.00;52640.44;4998736;28;20396;-67
2022/10/02 09:58:19;;;;;;;4.40;0.70;;;;;;;-140.72;100.00;52628.28;4900318;28;20089;-67
2022/10/02 10:01:21;;;;;;;2.03;0.57;;;;;;;-140.72;100.00;52640.44;5007139;28;20030;-66
2022/10/02 10:04:15;;;;;;;5.63;0.63;;;;;;;-140.72;100.00;52672.91;5008770;28;20034;-68
2022/10/02 10:06:49;;;;;;;4.93;0.90;;;;;;;-140.72;100.00;52634.38;4997460;28;20026;-67
2022/10/02 10:09:44;;;;;;;5.97;0.90;;;;;;;-140.72;100.00;52597.84;4998027;28;20101;-67
2022/10/02 10:12:36;;;;;;;2.95;1.02;;;;;;;-140.72;100.00;52664.81;4988587;28;20576;-66
2022/10/02 10:15:14;;;;;;;2.88;1.13;;;;;;;-140.72;100.00;52666.84;5010703;28;20075;-66
2022/10/02 10:18:02;;;;;;;6.32;1.08;;;;;;;-140.72;100.00;52650.59;5005337;28;20088;-66
2022/10/02 10:20:56;;;;;;;5.38;1.02;;;;;;;-140.72;100.00;52605.94;4999798;28;20850;-67
2022/10/02 10:23:52;;;;;;;2.83;0.77;;;;;;;-140.72;100.00;52656.69;5003562;28;20108;-68
2022/10/02 10:26:45;;;;;;;1.50;0.55;;;;;;;-140.72;100.00;52642.47;5000913;28;20026;-67
2022/10/02 10:29:22;;;;;;;4.93;1.05;;;;;;;-140.72;100.00;52618.13;5003585;28;20497;-67
2022/10/02 10:32:33;;;;;;;3.03;0.65;;;;;;;-140.72;100.00;52618.13;5006408;28;20053;-68
2022/10/02 10:35:24;;;;;;;2.50;0.85;;;;;;;-140.72;100.00;52589.72;4974542;28;20046;-66
2022/10/02 10:38:32;;;;;;;4.70;1.02;;;;;;;-140.72;100.00;52644.50;5005901;28;20203;-69
2022/10/02 10:41:21;;;;;;;4.47;0.63;;;;;;;-140.72;100.00;52640.44;5007973;28;20092;-67
2022/10/02 10:44:05;;;;;;;2.47;0.50;;;;;;;-140.72;100.00;52610.00;5007706;28;20033;-68
2022/10/02 10:46:39;;;;;;;4.63;0.80;;;;;;;-140.72;100.00;52581.59;5014307;28;20041;-70
2022/10/02 10:49:11;;;;;;;4.78;1.38;;;;;;;-140.72;100.00;52532.91;5009068;28;20076;-71
2022/10/02 10:52:12;;;;;;;4.07;0.93;;;;;;;-140.72;100.00;52512.59;5010175;28;20079;-68
2022/10/02 10:55:06;;;;;;;5.95;0.88;;;;;;;-140.72;100.00;52522.75;5005939;28;20030;-67
2022/10/02 10:57:50;;;;;;;2.88;0.93;;;;;;;-140.72;100.00;52467.97;5001296;28;20336;-68
2022/10/02 11:00:22;;;;;;;4.85;0.93;;;;;;;-140.72;100.00;52470.00;5003102;28;20040;-67
2022/10/02 11:03:05;;;;;;;3.65;1.00;;;;;;;-140.72;100.00;52557.25;5009073;28;20033;-68
2022/10/02 11:06:02;;;;;;;5.22;0.90;;;;;;;-140.72;100.00;52551.16;5008683;28;20029;-67
2022/10/02 11:09:03;;;;;;;2.63;0.63;;;;;;;-140.72;99.75;52528.84;5008932;28;20061;-68
2022/10/02 11:11:49;;;;;;;3.58;0.85;;;;;;;-140.72;0.00;52500.44;5007809;28;20088;-67
2022/10/02 11:14:34;;;;;;;4.47;0.65;;;;;;;-140.72;0.00;52427.38;5006641;28;20411;-68
2022/10/02 11:17:41;;;;;;;2.40;0.65;;;;;;;-140.72;0.00;52394.91;5006834;28;20025;-68
2022/10/02 11:20:34;;;;;;;4.05;1.15;;;;;;;-140.72;0.00;52403.03;5001262;28;20070;-68
2022/10/02 11:23:00;;;;;;;2.58;0.73;;;;;;;-140.72;0.00;52467.97;5001620;28;20461;-68
2022/10/02 11:26:06;;;;;;;0.83;0.40;;;;;;;-140.72;0.00;52461.88;5002133;28;20041;-68
2022/10/02 11:28:34;;;;;;;4.85;1.73;;;;;;;-140.72;0.00;52423.31;4927787;29;20422;-69
2022/10/02 11:31:09;;;;;;;1.17;0.50;;;;;;;-140.72;0.00;52407.09;4924250;29;20126;-69
2022/10/02 11:33:47;;;;;;;5.75;1.10;;;;;;;-140.72;0.00;52439.56;4966078;28;20471;-67
2022/10/02 11:36:41;;;;;;;4.85;1.13;;;;;;;-140.72;0.00;52421.28;5000800;28;20103;-67
2022/10/02 11:39:15;;;;;;;3.22;0.90;;;;;;;-140.72;0.00;52413.19;4997222;28;20120;-67
2022/10/02 11:42:17;;;;;;;2.45;0.80;;;;;;;-140.72;0.00;52374.63;5007513;28;20374;-69
2022/10/02 11:45:15;;;;;;;4.55;0.90;;;;;;;-140.72;0.00;52307.66;5006789;28;20033;-68
2022/10/02 11:47:45;;;;;;;5.28;0.63;;;;;;;-140.72;0.00;52289.41;5004220;28;20114;-69
2022/10/02 11:50:31;;;;;;;1.70;0.55;;;;;;;-140.72;0.00;52242.75;4999006;28;20026;-68
2022/10/02 11:53:33;;;;;;;1.63;0.45;;;;;;;-140.72;0.00;52224.47;5005480;28;20038;-67
2022/10/02 11:56:21;;;;;;;1.77;0.43;;;;;;;-140.72;0.00;52200.13;4996760;28;20464;-67
2022/10/02 11:58:49;;;;;;;3.50;0.82;;;;;;;-140.72;0.00;52242.75;5001478;28;20066;-68
2022/10/02 12:01:32;;;;;;;1.67;0.50;;;;;;;-140.72;0.00;52187.97;5001525;28;20081;-67
2022/10/02 12:04:35;;;;;;;1.60;0.60;;;;;;;-140.72;0.00;52309.69;5006631;28;20026;-67
2022/10/02 12:07:20;;;;;;;2.05;0.50;;;;;;;-140.72;0.00;52407.09;5004847;28;20044;-68
2022/10/02 12:09:59;;;;;;;2.25;0.90;;;;;;;-140.72;0.00;52461.88;5007198;28;20101;-68
2022/10/02 12:12:50;;;;;;;4.55;1.10;;;;;;;-140.72;0.00;52541.03;5010886;28;20451;-68
2022/10/02 12:15:40;;;;;;;4.03;0.50;;;;;;;-140.72;0.00;52593.78;5012236;28;20044;-69
2022/10/02 12:18:31;;;;;;;4.28;1.08;;;;;;;-140.72;0.00;52569.44;5008598;28;20026;-69